createdAt,value
2019-06-04T00:00:25.118Z,100460.43
2019-06-04T00:02:56.494Z,100466.17
2019-06-04T00:05:26.281Z,100455.47
2019-06-04T00:07:57.472Z,100444.32
2019-06-04T00:10:27.621Z,100439.77
2019-06-04T00:13:36.536Z,100438.34
2019-06-04T00:16:08.268Z,100437.50
2019-06-04T00:18:37.723Z,100443.47
2019-06-04T00:21:07.458Z,100448.00
2019-06-04T00:26:19.083Z,100435.52
2019-06-04T00:29:08.393Z,100433.62
2019-06-04T00:34:46.456Z,100433.63
2019-06-04T00:43:16.007Z,100421.17
2019-06-04T00:48:54.161Z,100426.67
2019-06-04T00:51:23.748Z,100430.99
2019-06-04T00:53:53.779Z,100427.61
2019-06-04T00:56:23.264Z,100415.73
2019-06-04T00:58:52.669Z,100412.88
2019-06-04T01:04:57.939Z,100401.09
2019-06-04T01:07:28.751Z,100414.61
2019-06-04T01:09:59.243Z,100400.63
2019-06-04T01:15:26.097Z,100435.80
2019-06-04T01:18:15.316Z,100451.51
2019-06-04T01:21:04.953Z,100425.00
2019-06-04T01:23:35.424Z,100405.06
2019-06-04T01:26:05.650Z,100413.24
2019-06-04T01:29:15.979Z,100412.29
2019-06-04T01:31:45.992Z,100418.05
2019-06-04T01:34:15.568Z,100408.06
2019-06-04T01:36:44.987Z,100407.01
2019-06-04T01:48:26.518Z,100363.66
2019-06-04T01:50:55.906Z,100360.47
2019-06-04T01:53:25.251Z,100358.57
2019-06-04T01:59:30.788Z,100359.23
2019-06-04T02:02:00.175Z,100358.16
2019-06-04T02:05:10.278Z,100355.41
2019-06-04T02:07:59.259Z,100364.91
2019-06-04T02:13:30.628Z,100333.30
2019-06-04T02:16:39.274Z,100327.84
2019-06-04T02:19:09.720Z,100325.08
2019-06-04T02:21:39.915Z,100358.27
2019-06-04T02:24:09.801Z,100360.38
2019-06-04T02:27:20.115Z,100369.39
2019-06-04T02:33:09.556Z,100364.95
2019-06-04T02:38:48.100Z,100375.58
2019-06-04T02:41:18.590Z,100389.05
2019-06-04T02:44:00.892Z,100377.77
2019-06-04T02:56:20.749Z,100364.61
2019-06-04T03:02:16.585Z,100364.88
2019-06-04T03:04:46.145Z,100367.41
2019-06-04T03:07:54.823Z,100375.58
2019-06-04T03:13:31.766Z,100359.30
2019-06-04T03:19:28.296Z,100332.92
2019-06-04T03:21:57.654Z,100335.94
2019-06-04T03:25:06.344Z,100340.34
2019-06-04T03:30:50.377Z,100325.45
2019-06-04T03:34:00.115Z,100309.87
2019-06-04T03:36:49.343Z,100313.83
2019-06-04T03:39:18.723Z,100320.21
2019-06-04T03:41:48.146Z,100320.91
2019-06-04T03:44:29.300Z,100329.79
2019-06-04T03:46:58.845Z,100320.32
2019-06-04T03:49:28.191Z,100320.32
2019-06-04T03:52:36.996Z,100314.41
2019-06-04T03:58:22.889Z,100306.49
2019-06-04T04:04:07.122Z,100304.33
2019-06-04T04:09:29.051Z,100312.95
2019-06-04T04:11:59.744Z,100304.22
2019-06-04T04:14:29.258Z,100294.97
2019-06-04T04:17:38.613Z,100297.72
2019-06-04T04:20:08.045Z,100286.68
2019-06-04T04:23:17.282Z,100259.31
2019-06-04T04:25:48.180Z,100277.20
2019-06-04T04:28:18.773Z,100282.16
2019-06-04T04:30:49.711Z,100285.85
2019-06-04T04:36:33.645Z,100291.87
2019-06-04T04:39:03.432Z,100294.52
2019-06-04T04:41:32.796Z,100293.67
2019-06-04T04:44:02.355Z,100294.03
2019-06-04T04:49:41.379Z,100294.38
2019-06-04T04:52:10.745Z,100286.12
2019-06-04T04:54:40.399Z,100289.71
2019-06-04T04:57:09.794Z,100304.95
2019-06-04T04:59:39.342Z,100302.30
2019-06-04T05:02:28.348Z,100307.62
2019-06-04T05:04:59.021Z,100298.95
2019-06-04T05:25:36.859Z,100284.86
2019-06-04T05:28:06.289Z,100285.91
2019-06-04T05:30:36.629Z,100281.59
2019-06-04T05:33:06.845Z,100284.24
2019-06-04T05:38:45.062Z,100287.08
2019-06-04T05:44:28.441Z,100269.92
2019-06-04T05:47:30.670Z,100263.48
2019-06-04T05:50:00.384Z,100255.66
2019-06-04T05:52:30.999Z,100256.50
2019-06-04T06:01:42.968Z,100265.05
2019-06-04T06:04:12.759Z,100272.75
2019-06-04T06:07:21.542Z,100266.25
2019-06-04T06:09:51.010Z,100264.56
2019-06-04T06:12:20.367Z,100267.24
2019-06-04T06:14:49.818Z,100274.67
2019-06-04T06:17:19.203Z,100276.23
2019-06-04T06:20:28.322Z,100270.98
2019-06-04T06:26:15.194Z,100283.58
2019-06-04T06:28:44.595Z,100286.34
2019-06-04T06:31:14.172Z,100278.95
2019-06-04T06:34:22.889Z,100283.41
2019-06-04T06:36:52.334Z,100288.37
2019-06-04T06:39:21.763Z,100286.67
2019-06-04T06:41:51.184Z,100291.02
2019-06-04T06:44:20.671Z,100294.69
2019-06-04T06:49:41.853Z,100296.07
2019-06-04T06:52:12.340Z,100292.39
2019-06-04T06:55:21.341Z,100296.95
2019-06-04T06:57:50.816Z,100298.18
2019-06-04T07:01:07.165Z,100299.20
2019-06-04T07:15:42.671Z,100327.38
2019-06-04T07:18:51.500Z,100323.97
2019-06-04T07:22:00.418Z,100088.70
2019-06-04T07:24:51.830Z,100334.53
2019-06-04T07:27:20.769Z,100331.19
2019-06-04T07:33:05.331Z,100342.81
2019-06-04T07:41:50.186Z,100366.73
2019-06-04T07:47:35.299Z,100339.65
2019-06-04T07:53:07.303Z,100333.80
2019-06-04T07:59:25.148Z,100332.37
2019-06-04T08:02:13.603Z,100327.35
2019-06-04T08:07:38.691Z,100344.12
2019-06-04T08:10:47.591Z,100339.03
2019-06-04T08:13:17.094Z,100323.38
2019-06-04T08:19:03.133Z,100317.84
2019-06-04T08:22:11.955Z,100320.30
2019-06-04T08:27:47.713Z,100333.67
2019-06-04T08:30:17.354Z,100332.83
2019-06-04T08:35:36.902Z,100341.08
2019-06-04T08:41:16.418Z,100341.07
2019-06-04T08:44:25.060Z,100344.22
2019-06-04T08:49:49.601Z,100347.91
2019-06-04T08:52:19.178Z,100341.07
2019-06-04T08:54:48.526Z,100341.35
2019-06-04T08:57:57.333Z,100346.23
2019-06-04T09:03:28.560Z,100354.52
2019-06-04T09:08:59.725Z,100355.85
2019-06-04T09:11:29.109Z,100355.02
2019-06-04T09:13:58.598Z,100355.79
2019-06-04T09:17:07.362Z,100362.78
2019-06-04T09:19:36.961Z,100359.92
2019-06-04T09:22:08.510Z,100355.13
2019-06-04T09:28:12.385Z,100360.62
2019-06-04T09:30:43.786Z,100363.33
2019-06-04T09:36:08.190Z,100378.69
2019-06-04T09:38:37.731Z,100380.69
2019-06-04T09:41:47.863Z,100377.83
2019-06-04T09:44:17.885Z,100382.22
2019-06-04T09:46:49.328Z,100381.39
2019-06-04T09:49:20.315Z,100379.72
2019-06-04T09:54:29.359Z,100381.88
2019-06-04T09:56:58.849Z,100384.05
2019-06-04T10:00:07.683Z,100385.59
2019-06-04T10:08:39.997Z,100365.93
2019-06-04T10:14:59.832Z,100366.48
2019-06-04T10:20:44.020Z,100374.80
2019-06-04T10:26:24.971Z,100378.08
2019-06-04T10:29:09.147Z,100379.25
2019-06-04T10:34:32.347Z,100385.66
2019-06-04T10:37:41.074Z,100378.35
2019-06-04T10:40:51.901Z,100374.71
2019-06-04T10:43:40.052Z,100379.72
2019-06-04T10:49:05.136Z,100384.62
2019-06-04T11:00:59.473Z,100420.79
2019-06-04T11:03:29.643Z,100429.53
2019-06-04T11:06:38.650Z,100436.81
2019-06-04T11:12:23.134Z,100455.84
2019-06-04T11:14:53.917Z,100456.33
2019-06-04T11:17:24.029Z,100457.14
2019-06-04T11:19:53.635Z,100447.45
2019-06-04T11:22:24.599Z,100455.16
2019-06-04T11:25:13.251Z,100452.30
2019-06-04T11:30:58.348Z,100447.31
2019-06-04T11:33:28.662Z,100443.10
2019-06-04T11:39:10.292Z,100429.44
2019-06-04T11:41:25.458Z,100426.17
2019-06-04T11:43:55.144Z,100427.02
2019-06-04T11:50:01.954Z,100426.11
2019-06-04T12:01:18.107Z,100445.53
2019-06-04T12:03:45.893Z,100438.52
2019-06-04T12:06:15.122Z,100432.50
2019-06-04T12:09:30.708Z,100434.24
2019-06-04T12:18:11.006Z,100439.47
2019-06-04T12:24:01.977Z,100455.91
2019-06-04T12:29:33.642Z,100472.31
2019-06-04T12:32:42.283Z,100477.21
2019-06-04T12:41:08.823Z,100503.27
2019-06-04T12:44:17.475Z,100497.61
2019-06-04T12:46:47.018Z,100492.38
2019-06-04T13:10:37.659Z,100529.20
2019-06-04T13:13:46.488Z,100542.06
2019-06-04T13:16:55.250Z,100555.09
2019-06-04T13:34:25.242Z,100574.61
2019-06-04T13:36:54.638Z,100577.89
2019-06-04T13:42:19.726Z,100582.53
2019-06-04T13:45:28.451Z,100580.98
2019-06-04T13:50:48.932Z,100596.81
2019-06-04T13:56:02.226Z,100620.25
2019-06-04T14:01:41.609Z,100630.97
2019-06-04T14:07:16.067Z,100621.02
2019-06-04T14:09:45.941Z,100624.00
2019-06-04T14:12:55.003Z,100618.34
2019-06-04T14:15:43.453Z,100628.75
2019-06-04T14:24:26.426Z,100630.81
2019-06-04T14:33:14.358Z,100614.32
2019-06-04T14:35:44.270Z,100625.53
2019-06-04T14:38:14.378Z,100623.49
2019-06-04T14:43:51.713Z,100630.27
2019-06-04T14:49:15.862Z,100632.19
2019-06-04T14:51:45.658Z,100639.73
2019-06-04T14:57:23.020Z,100646.59
2019-06-04T15:03:01.352Z,100666.77
2019-06-04T15:05:30.995Z,100683.31
2019-06-04T15:08:40.104Z,100695.73
2019-06-04T15:11:30.160Z,100694.80
2019-06-04T15:13:41.159Z,100689.27
2019-06-04T15:16:12.605Z,100688.73
2019-06-04T15:21:44.593Z,100687.09
2019-06-04T15:24:14.859Z,100689.14
2019-06-04T15:26:45.345Z,100692.52
2019-06-04T15:29:54.177Z,100692.66
2019-06-04T15:35:20.283Z,100712.45
2019-06-04T15:37:51.033Z,100719.86
2019-06-04T15:41:00.180Z,100720.86
2019-06-04T15:43:48.794Z,100731.09
2019-06-04T15:46:19.200Z,100734.86
2019-06-04T15:48:49.711Z,100729.23
2019-06-04T15:51:20.124Z,100731.63
2019-06-04T15:53:50.504Z,100735.02
2019-06-04T16:00:26.947Z,100742.28
2019-06-04T16:02:56.726Z,100749.39
2019-06-04T16:05:26.184Z,100748.67
2019-06-04T16:08:34.975Z,100759.77
2019-06-04T16:11:04.433Z,100760.03
2019-06-04T16:13:35.971Z,100777.31
2019-06-04T16:16:07.363Z,100768.82
2019-06-04T16:18:37.146Z,100779.05
2019-06-04T16:21:06.552Z,100775.41
2019-06-04T16:24:15.331Z,100775.50
2019-06-04T16:29:53.885Z,100787.17
2019-06-04T16:33:02.768Z,100781.97
2019-06-04T16:35:34.013Z,100792.25
2019-06-04T16:40:59.582Z,100797.50
2019-06-04T16:46:44.307Z,100802.77
2019-06-04T16:49:13.826Z,100802.28
2019-06-04T16:52:22.964Z,100806.69
2019-06-04T16:54:53.823Z,100813.59
2019-06-04T16:57:44.512Z,100809.91
2019-06-04T17:00:28.337Z,100815.03
2019-06-04T17:03:36.986Z,100809.87
2019-06-04T17:06:06.583Z,100806.58
2019-06-04T17:08:36.385Z,100811.39
2019-06-04T17:11:45.182Z,100805.06
2019-06-04T17:17:26.855Z,100803.12
2019-06-04T17:25:46.250Z,100814.20
2019-06-04T17:31:24.491Z,100822.95
2019-06-04T17:33:53.976Z,100835.77
2019-06-04T17:37:02.800Z,100833.90
2019-06-04T17:39:33.262Z,100833.30
2019-06-04T17:42:42.200Z,100832.45
2019-06-04T17:45:11.779Z,100832.64
2019-06-04T17:47:41.185Z,100837.97
2019-06-04T17:50:50.080Z,100842.31
2019-06-04T17:53:19.517Z,100847.10
2019-06-04T17:55:49.075Z,100858.16
2019-06-04T18:01:35.679Z,100864.57
2019-06-04T18:06:45.512Z,100869.81
2019-06-04T18:09:56.882Z,100868.91
2019-06-04T18:15:02.546Z,100868.06
2019-06-04T18:17:32.197Z,100866.94
2019-06-04T18:25:53.451Z,100890.80
2019-06-04T18:28:22.860Z,100888.86
2019-06-04T18:31:31.955Z,100889.98
2019-06-04T18:36:59.174Z,100893.85
2019-06-04T18:39:30.061Z,100896.09
2019-06-04T18:45:28.717Z,100902.70
2019-06-04T18:47:59.983Z,100899.66
2019-06-04T18:50:30.881Z,100904.48
2019-06-04T18:53:40.228Z,100913.54
2019-06-04T18:56:10.004Z,100919.50
2019-06-04T18:58:41.131Z,100922.50
2019-06-04T19:01:11.293Z,100928.16
2019-06-04T19:03:40.939Z,100923.06
2019-06-04T19:06:10.375Z,100923.42
2019-06-04T19:11:37.212Z,100928.95
2019-06-04T19:14:06.961Z,100935.72
2019-06-04T19:17:15.735Z,100937.05
2019-06-04T19:19:45.278Z,100930.89
2019-06-04T19:22:15.108Z,100927.26
2019-06-04T19:24:56.673Z,100928.25
2019-06-04T19:30:27.845Z,100934.29
2019-06-04T19:33:37.481Z,100936.61
2019-06-04T19:36:11.392Z,100932.86
2019-06-04T19:38:42.489Z,100938.44
2019-06-04T19:41:51.606Z,100934.22
2019-06-04T19:44:24.002Z,100943.27
2019-06-04T19:46:52.267Z,100940.27
2019-06-04T19:49:21.868Z,100932.80
2019-06-04T19:51:51.458Z,100937.38
2019-06-04T19:55:01.195Z,100938.49
2019-06-04T20:00:41.845Z,100929.55
2019-06-04T20:06:12.613Z,100937.79
2019-06-04T20:11:33.053Z,100948.76
2019-06-04T20:17:13.836Z,100955.53
2019-06-04T20:22:58.212Z,100946.61
2019-06-04T20:25:27.826Z,100952.41
2019-06-04T20:27:57.497Z,100956.13
2019-06-04T20:30:27.520Z,100949.01
2019-06-04T20:32:57.875Z,100954.32
2019-06-04T20:35:40.735Z,100957.72
2019-06-04T20:41:06.900Z,100961.56
2019-06-04T20:46:56.967Z,100982.54
2019-06-04T20:52:35.610Z,100982.14
2019-06-04T20:58:25.531Z,100988.63
2019-06-04T21:00:55.232Z,101001.78
2019-06-04T21:06:20.372Z,101008.14
2019-06-04T21:08:51.765Z,101010.16
2019-06-04T21:11:22.499Z,101018.27
2019-06-04T21:16:47.729Z,101016.41
2019-06-04T21:19:19.490Z,101011.36
2019-06-04T21:25:16.715Z,101014.06
2019-06-04T21:27:47.647Z,101015.75
2019-06-04T21:30:56.713Z,101018.38
2019-06-04T21:39:53.160Z,101035.78
2019-06-04T21:42:20.319Z,101031.05
2019-06-04T21:44:51.106Z,101032.85
2019-06-04T21:48:00.399Z,101039.20
2019-06-04T21:50:30.622Z,100966.56
2019-06-04T21:53:00.066Z,101039.55
2019-06-04T21:56:08.832Z,101041.94
2019-06-04T21:58:38.270Z,101042.89
2019-06-04T22:04:37.489Z,101051.39
2019-06-04T22:07:07.062Z,101060.53
2019-06-04T22:10:16.203Z,101064.23
2019-06-04T22:16:02.791Z,101060.80
2019-06-04T22:18:38.958Z,101070.78
2019-06-04T22:24:04.544Z,101073.50
2019-06-04T22:27:13.572Z,101075.50
2019-06-04T22:29:43.112Z,101081.51
2019-06-04T22:32:12.763Z,101092.75
2019-06-04T22:34:42.311Z,101092.13
2019-06-04T22:37:11.773Z,101093.66
2019-06-04T22:39:41.744Z,101094.66
2019-06-04T22:42:11.110Z,101102.36
2019-06-04T22:44:40.541Z,101095.31
2019-06-04T22:47:10.434Z,101095.19
2019-06-04T22:52:54.652Z,101094.14
2019-06-04T22:58:27.546Z,101107.84
2019-06-04T23:00:57.913Z,101107.95
2019-06-04T23:03:29.662Z,101105.30
2019-06-04T23:08:56.526Z,101107.84
2019-06-04T23:11:26.038Z,101111.44
2019-06-04T23:13:56.583Z,101122.88
2019-06-04T23:17:06.235Z,101125.63
2019-06-04T23:22:37.855Z,101119.14
2019-06-04T23:25:07.357Z,101127.17
2019-06-04T23:28:16.326Z,101127.00
2019-06-04T23:33:47.603Z,101119.16
2019-06-04T23:36:56.969Z,101049.02
2019-06-04T23:40:06.971Z,101126.52
2019-06-04T23:42:36.365Z,101124.95
2019-06-04T23:45:45.269Z,101133.92
2019-06-04T23:51:35.192Z,101143.56
2019-06-04T23:54:05.923Z,101142.72
2019-06-04T23:56:35.823Z,101144.98
2019-06-04T23:59:44.555Z,101153.39
